Time;durP1;ratioP1;P1;durP2;ratioP2;P2;SDS_P1;SDS_P2;PMS_P1;PMS_P2;Temp;Humidity;BMP_temperature;BMP_pressure;BME280_temperature;BME280_humidity;BME280_pressure;Samples;Min_cycle;Max_cycle;Signal;HPM_P1;HPM_P2
2023/11/17 00:03:23;;;;;;;8.23;5.85;;;;;;;2.76;89.76;100268.66;10423075;28;20481;-78
2023/11/17 00:08:28;;;;;;;12.27;6.13;;;;;;;2.57;90.34;100263.41;10410882;28;20049;-78
2023/11/17 00:13:33;;;;;;;9.43;6.07;;;;;;;2.55;90.59;100256.44;10408102;28;20053;-78
2023/11/17 00:18:37;;;;;;;13.60;6.68;;;;;;;2.53;90.84;100267.16;10394822;28;20085;-78
2023/11/17 00:23:40;;;;;;;10.30;6.35;;;;;;;2.47;91.31;100272.75;10406355;28;20072;-79
2023/11/17 00:28:44;;;;;;;12.80;6.60;;;;;;;2.30;91.92;100280.63;10403664;28;20044;-77
2023/11/17 00:33:48;;;;;;;12.55;7.70;;;;;;;2.28;92.47;100278.06;10410046;28;20064;-78
2023/11/17 00:38:51;;;;;;;13.07;7.35;;;;;;;2.25;93.52;100280.88;10408202;28;20045;-77
2023/11/17 00:43:55;;;;;;;13.27;8.60;;;;;;;2.27;93.46;100296.69;10407314;28;20072;-78
2023/11/17 00:48:59;;;;;;;13.52;7.78;;;;;;;2.27;93.42;100288.72;10403956;28;20054;-77
2023/11/17 00:54:04;;;;;;;14.52;8.10;;;;;;;2.25;93.47;100304.72;10399732;28;20310;-77
2023/11/17 00:59:11;;;;;;;13.85;8.55;;;;;;;2.23;93.40;100303.94;10386485;28;20061;-77
2023/11/17 01:04:15;;;;;;;16.33;9.80;;;;;;;2.12;94.04;100324.78;10402182;28;20132;-79
2023/11/17 01:09:18;;;;;;;13.18;8.85;;;;;;;2.04;94.24;100334.88;10413745;28;20130;-79
2023/11/17 01:14:23;;;;;;;13.90;7.88;;;;;;;2.09;94.03;100333.75;10445290;28;20041;-79
2023/11/17 01:19:26;;;;;;;15.52;9.02;;;;;;;2.10;94.02;100347.84;10407391;28;20059;-77
2023/11/17 01:24:29;;;;;;;18.70;10.05;;;;;;;2.12;93.90;100354.78;10419682;28;20065;-78
2023/11/17 01:29:33;;;;;;;19.05;11.35;;;;;;;1.95;95.02;100373.25;10405360;28;20624;-78
2023/11/17 01:34:37;;;;;;;17.95;10.10;;;;;;;1.89;95.08;100373.53;10408472;28;20659;-78
2023/11/17 01:39:40;;;;;;;20.67;9.35;;;;;;;1.78;96.25;100381.09;10405921;28;20059;-78
2023/11/17 01:44:44;;;;;;;15.18;10.23;;;;;;;1.79;96.43;100386.34;10428655;28;20032;-78
2023/11/17 01:49:49;;;;;;;18.50;10.40;;;;;;;1.89;96.44;100386.75;10429288;28;20080;-78
2023/11/17 01:54:53;;;;;;;14.38;9.38;;;;;;;1.92;95.25;100397.22;10417920;28;20053;-78
2023/11/17 01:59:57;;;;;;;18.15;10.15;;;;;;;1.84;95.53;100413.47;10426056;28;20078;-76
2023/11/17 02:05:01;;;;;;;19.05;10.02;;;;;;;1.81;95.23;100403.03;10414264;28;20072;-78
2023/11/17 02:10:10;;;;;;;13.52;9.48;;;;;;;1.89;95.21;100411.50;10410216;28;21279;-79
2023/11/17 02:15:16;;;;;;;14.98;9.20;;;;;;;1.85;95.47;100425.78;10417577;28;21256;-77
2023/11/17 02:20:20;;;;;;;14.38;9.13;;;;;;;1.92;95.03;100423.72;10403476;28;20048;-78
2023/11/17 02:25:32;;;;;;;16.23;9.32;;;;;;;1.84;95.15;100432.03;10409530;28;20053;-79
2023/11/17 02:30:39;;;;;;;17.77;9.00;;;;;;;2.01;94.21;100436.56;10418257;28;20809;-79
2023/11/17 02:35:45;;;;;;;14.57;8.90;;;;;;;2.04;94.06;100436.44;10422018;28;20059;-79
2023/11/17 02:40:55;;;;;;;17.45;8.50;;;;;;;2.11;93.07;100437.00;10422590;28;20621;-79
2023/11/17 02:46:01;;;;;;;11.80;7.95;;;;;;;2.05;92.95;100438.13;10435471;28;20056;-78
2023/11/17 02:51:17;;;;;;;18.63;8.52;;;;;;;2.04;92.66;100454.13;10432274;28;20142;-79
2023/11/17 02:56:22;;;;;;;11.73;8.50;;;;;;;2.05;92.73;100454.03;10432955;28;20068;-79
2023/11/17 03:01:26;;;;;;;13.38;8.30;;;;;;;2.13;92.46;100464.31;10410831;28;20049;-79
2023/11/17 03:06:31;;;;;;;13.48;7.30;;;;;;;2.10;92.36;100465.31;10408155;28;20062;-79
2023/11/17 03:11:34;;;;;;;12.05;7.30;;;;;;;2.11;92.10;100476.75;10414875;28;20119;-78
2023/11/17 03:16:39;;;;;;;13.55;6.55;;;;;;;1.96;92.28;100486.25;10406437;28;20055;-79
2023/11/17 03:21:44;;;;;;;11.07;7.15;;;;;;;2.06;92.81;100482.28;10410215;28;20060;-78
2023/11/17 03:26:50;;;;;;;11.65;7.30;;;;;;;2.10;93.11;100493.59;10447287;28;20101;-78
2023/11/17 03:38:37;;;;;;;14.88;7.50;;;;;;;2.14;92.61;100497.84;10337346;28;20045;-79
2023/11/17 03:43:39;;;;;;;12.63;7.22;;;;;;;2.31;92.09;100492.66;10400976;28;20087;-79
2023/11/17 03:48:42;;;;;;;12.70;7.90;;;;;;;2.35;91.73;100498.66;10405125;28;20049;-79
2023/11/17 03:53:46;;;;;;;15.32;8.57;;;;;;;2.18;91.79;100497.63;10406839;28;20103;-79
2023/11/17 03:58:49;;;;;;;11.05;7.88;;;;;;;2.13;91.90;100504.91;10397240;28;20061;-79
2023/11/17 04:03:52;;;;;;;11.88;8.40;;;;;;;2.02;92.69;100511.63;10411416;28;20718;-79
2023/11/17 04:08:57;;;;;;;16.05;7.85;;;;;;;2.11;92.24;100519.16;10402424;28;20104;-79
2023/11/17 04:14:01;;;;;;;12.70;7.97;;;;;;;2.13;92.52;100527.91;10432625;28;20053;-79
2023/11/17 04:19:06;;;;;;;17.60;9.57;;;;;;;2.22;92.30;100518.69;10400468;28;20044;-77
2023/11/17 04:24:10;;;;;;;14.93;8.73;;;;;;;2.25;91.93;100531.81;10391111;28;20055;-79
2023/11/17 04:29:13;;;;;;;12.85;8.65;;;;;;;2.35;91.87;100535.78;10402090;28;20072;-79
2023/11/17 04:34:16;;;;;;;13.70;9.38;;;;;;;2.38;91.86;100535.63;10402652;28;20078;-78
2023/11/17 04:39:24;;;;;;;18.00;9.23;;;;;;;2.41;91.14;100532.84;10380446;28;20056;-78
2023/11/17 04:44:27;;;;;;;15.82;9.43;;;;;;;2.43;91.38;100531.00;10399604;28;20053;-78
2023/11/17 04:49:29;;;;;;;15.82;9.45;;;;;;;2.50;91.40;100536.91;10400374;28;21224;-78
2023/11/17 04:54:35;;;;;;;15.00;9.00;;;;;;;2.53;90.83;100542.94;10411175;28;20084;-78
2023/11/17 04:59:38;;;;;;;15.07;9.40;;;;;;;2.44;90.92;100546.00;10418998;28;20081;-79
2023/11/17 05:04:42;;;;;;;17.23;9.30;;;;;;;2.36;90.79;100542.81;10410732;28;20846;-79
2023/11/17 05:09:46;;;;;;;12.20;8.73;;;;;;;2.29;90.87;100549.31;10415920;28;20053;-78
2023/11/17 05:14:52;;;;;;;17.27;9.40;;;;;;;2.27;91.41;100545.84;10407851;28;20061;-77
2023/11/17 05:19:56;;;;;;;15.38;9.23;;;;;;;2.32;91.80;100555.31;10392190;28;20064;-77
2023/11/17 05:25:01;;;;;;;16.38;9.35;;;;;;;2.33;92.58;100569.44;10404119;28;20106;-78
2023/11/17 05:30:04;;;;;;;15.40;8.55;;;;;;;2.28;92.86;100566.16;10407683;28;20609;-78
2023/11/17 05:35:08;;;;;;;12.43;8.95;;;;;;;2.33;93.29;100569.44;10388954;28;20056;-78
2023/11/17 05:40:13;;;;;;;13.65;9.23;;;;;;;2.32;93.50;100568.59;10420393;28;20049;-78
2023/11/17 05:45:15;;;;;;;14.30;9.80;;;;;;;2.45;93.38;100573.38;10387449;28;20045;-78
2023/11/17 05:50:20;;;;;;;16.33;10.13;;;;;;;2.44;93.80;100576.94;10392401;28;20060;-78
2023/11/17 05:55:25;;;;;;;17.08;10.98;;;;;;;2.39;94.56;100575.34;10394786;28;20045;-78
2023/11/17 06:00:28;;;;;;;17.90;9.90;;;;;;;2.20;96.97;100587.69;10414786;28;20049;-78
2023/11/17 06:05:31;;;;;;;16.35;9.43;;;;;;;2.47;95.09;100596.22;10403448;28;20050;-78
2023/11/17 06:10:36;;;;;;;25.52;11.13;;;;;;;2.46;95.20;100606.91;10400038;28;20139;-78
2023/11/17 06:15:39;;;;;;;20.20;11.38;;;;;;;2.46;94.82;100601.59;10397551;28;20049;-77
2023/11/17 06:20:42;;;;;;;16.48;10.40;;;;;;;2.34;95.25;100601.19;10405508;28;20119;-78
2023/11/17 06:25:47;;;;;;;21.08;10.55;;;;;;;2.46;94.33;100609.53;10415233;28;20048;-78
2023/11/17 06:30:50;;;;;;;19.48;11.75;;;;;;;2.33;95.03;100599.50;10401551;28;20053;-78
2023/11/17 06:35:53;;;;;;;20.98;12.02;;;;;;;2.21;96.00;100609.75;10394554;28;20053;-77
2023/11/17 06:40:59;;;;;;;19.40;12.30;;;;;;;2.47;94.17;100605.94;10407183;28;20060;-77
2023/11/17 06:46:02;;;;;;;21.00;11.32;;;;;;;2.30;95.20;100620.81;10412813;28;20068;-79
2023/11/17 06:51:06;;;;;;;17.15;10.05;;;;;;;2.33;95.12;100617.16;10406579;28;20068;-77
2023/11/17 06:56:10;;;;;;;19.63;11.35;;;;;;;2.24;96.53;100620.22;10402143;28;20053;-78
2023/11/17 07:01:14;;;;;;;18.75;10.65;;;;;;;1.92;98.37;100622.41;10397347;28;20060;-79
2023/11/17 07:06:18;;;;;;;21.65;11.30;;;;;;;1.89;98.66;100619.91;10411759;28;20765;-77
2023/11/17 07:11:24;;;;;;;19.45;11.45;;;;;;;2.20;96.27;100621.28;10412131;28;20053;-79
2023/11/17 07:16:27;;;;;;;15.10;10.07;;;;;;;2.38;96.30;100639.88;10405847;28;20048;-78
2023/11/17 07:21:46;;;;;;;14.82;9.57;;;;;;;2.48;95.21;100644.81;10396647;28;20052;-79
2023/11/17 07:26:51;;;;;;;19.88;11.10;;;;;;;2.59;94.95;100639.94;10397837;28;20053;-78
2023/11/17 07:31:54;;;;;;;17.77;10.80;;;;;;;2.64;94.49;100645.91;10402768;28;21183;-79
2023/11/17 07:36:57;;;;;;;17.58;12.05;;;;;;;2.58;94.21;100662.97;10399077;28;20047;-78
2023/11/17 07:42:02;;;;;;;18.73;11.98;;;;;;;2.57;94.15;100652.41;10404557;28;20049;-79
2023/11/17 07:47:05;;;;;;;17.88;11.95;;;;;;;2.55;94.35;100665.75;10397601;28;20053;-78
2023/11/17 07:52:08;;;;;;;22.35;13.38;;;;;;;2.59;93.97;100656.72;10429124;28;20897;-78
2023/11/17 07:57:13;;;;;;;21.13;12.02;;;;;;;2.47;94.71;100659.88;10396985;28;20701;-78
2023/11/17 08:02:16;;;;;;;19.27;12.07;;;;;;;3.30;93.10;100673.94;10403987;28;20045;-80
2023/11/17 08:07:19;;;;;;;21.50;12.63;;;;;;;3.47;89.19;100668.69;10403692;28;20690;-78
2023/11/17 08:12:23;;;;;;;20.20;11.88;;;;;;;3.57;88.45;100677.09;10403323;28;20125;-79
2023/11/17 08:17:27;;;;;;;19.75;12.38;;;;;;;3.73;87.29;100691.38;10394680;28;20086;-77
2023/11/17 08:22:30;;;;;;;18.27;11.48;;;;;;;3.62;87.39;100694.53;10403085;28;20051;-78
2023/11/17 08:27:36;;;;;;;23.33;12.43;;;;;;;3.77;87.17;100692.09;10397908;28;20064;-77
2023/11/17 08:32:39;;;;;;;24.85;12.10;;;;;;;3.73;87.87;100694.91;10403836;28;20063;-81
2023/11/17 08:37:42;;;;;;;19.10;11.52;;;;;;;3.74;87.46;100701.06;10399653;28;20103;-77
2023/11/17 08:42:47;;;;;;;21.67;12.48;;;;;;;3.88;86.70;100697.75;10408073;28;20056;-79
2023/11/17 08:47:50;;;;;;;24.10;11.63;;;;;;;3.76;87.90;100698.31;10389475;28;20045;-79
2023/11/17 08:52:57;;;;;;;19.85;11.85;;;;;;;4.16;86.23;100706.09;10438001;28;20045;-78
2023/11/17 08:58:02;;;;;;;17.83;12.00;;;;;;;4.22;84.92;100702.25;10407368;28;20127;-78
2023/11/17 09:03:09;;;;;;;18.48;10.02;;;;;;;3.95;85.73;100712.47;10406382;28;20060;-78
2023/11/17 09:08:12;;;;;;;18.67;10.88;;;;;;;3.90;86.95;100702.06;10416033;28;20400;-78
2023/11/17 09:13:17;;;;;;;17.58;10.25;;;;;;;3.87;86.93;100709.31;10427823;28;20045;-77
2023/11/17 09:18:21;;;;;;;20.73;11.05;;;;;;;4.26;84.85;100709.16;10408702;28;20053;-78
2023/11/17 09:23:24;;;;;;;23.55;11.82;;;;;;;4.37;85.06;100711.28;10407252;28;20045;-79
2023/11/17 09:28:28;;;;;;;26.00;13.52;;;;;;;4.49;83.67;100713.31;10406502;28;20053;-79
2023/11/17 09:33:32;;;;;;;18.50;10.55;;;;;;;4.43;84.06;100723.44;10409895;28;20080;-78
2023/11/17 09:38:37;;;;;;;18.02;10.95;;;;;;;4.69;83.70;100714.09;10401148;28;20420;-78
2023/11/17 09:43:47;;;;;;;16.92;11.25;;;;;;;4.83;83.45;100730.25;10410467;28;20052;-80
2023/11/17 09:48:54;;;;;;;17.90;10.48;;;;;;;4.85;83.34;100731.00;10410308;28;21267;-79
2023/11/17 09:53:59;;;;;;;15.55;10.48;;;;;;;5.07;82.21;100736.09;10421434;28;21297;-78
2023/11/17 09:59:03;;;;;;;19.70;10.50;;;;;;;5.19;81.08;100739.94;10422152;28;20089;-79
2023/11/17 10:04:11;;;;;;;16.02;9.20;;;;;;;5.40;80.18;100735.25;10430822;28;20180;-80
2023/11/17 10:09:17;;;;;;;16.15;9.10;;;;;;;5.31;80.98;100741.09;10402326;28;20048;-79
2023/11/17 10:14:26;;;;;;;16.80;8.57;;;;;;;5.28;81.05;100739.44;10398940;28;20046;-81
2023/11/17 10:19:31;;;;;;;15.68;9.52;;;;;;;5.43;81.10;100743.97;10401257;28;20069;-80
2023/11/17 10:24:34;;;;;;;13.52;8.57;;;;;;;5.46;80.53;100745.63;10405366;28;21194;-80
2023/11/17 10:29:40;;;;;;;11.95;7.47;;;;;;;5.57;80.75;100737.91;10403612;28;20545;-81
2023/11/17 10:34:42;;;;;;;12.30;6.25;;;;;;;5.25;78.83;100736.97;10397629;28;20417;-80
2023/11/17 10:39:50;;;;;;;10.80;6.18;;;;;;;5.21;79.10;100733.59;10396270;28;20053;-79
2023/11/17 10:45:18;;;;;;;10.38;5.78;;;;;;;4.89;79.41;100740.56;10401822;28;20556;-80
2023/11/17 10:50:22;;;;;;;9.23;6.45;;;;;;;5.07;78.75;100738.78;10400454;28;20080;-82
2023/11/17 10:55:34;;;;;;;9.40;5.93;;;;;;;5.38;78.18;100746.03;10411610;28;20841;-78
2023/11/17 11:00:39;;;;;;;13.75;6.60;;;;;;;5.25;77.90;100753.78;10419879;28;20161;-77
2023/11/17 11:05:43;;;;;;;10.95;6.40;;;;;;;5.47;78.12;100756.16;10427463;28;21161;-79
2023/11/17 11:10:52;;;;;;;10.70;6.10;;;;;;;5.01;78.38;100757.75;10422370;28;20155;-80
2023/11/17 11:16:05;;;;;;;16.50;6.35;;;;;;;5.82;76.55;100753.41;10420268;28;20063;-79
2023/11/17 11:21:10;;;;;;;10.43;5.85;;;;;;;5.61;75.53;100752.75;10407092;28;20072;-80
2023/11/17 11:26:14;;;;;;;10.68;5.90;;;;;;;5.56;77.05;100749.47;10406799;28;20056;-83
2023/11/17 11:31:20;;;;;;;9.43;5.55;;;;;;;5.88;76.20;100754.84;10398213;28;20045;-83
2023/11/17 11:36:24;;;;;;;11.98;8.27;;;;;;;6.03;75.55;100753.97;10429395;28;20159;-79
2023/11/17 11:41:29;;;;;;;12.70;7.10;;;;;;;5.93;74.86;100750.13;10431818;28;20052;-82
2023/11/17 11:46:35;;;;;;;12.10;8.63;;;;;;;6.46;74.42;100764.88;10419283;28;20057;-80
2023/11/17 11:51:43;;;;;;;12.90;7.72;;;;;;;6.65;72.04;100761.16;10402277;28;20505;-82
2023/11/17 11:56:47;;;;;;;12.07;8.43;;;;;;;6.94;73.08;100757.66;10398198;28;20057;-80
2023/11/17 12:01:52;;;;;;;13.13;8.35;;;;;;;6.67;73.39;100760.13;10404497;28;20053;-80
2023/11/17 12:06:55;;;;;;;11.15;7.25;;;;;;;7.95;69.56;100763.88;10407921;28;20053;-80
2023/11/17 12:11:58;;;;;;;10.27;6.43;;;;;;;9.58;61.58;100752.94;10413827;28;20099;-81
2023/11/17 12:17:04;;;;;;;8.95;4.97;;;;;;;7.69;66.23;100769.06;10435632;28;20041;-81
2023/11/17 12:22:10;;;;;;;7.05;5.32;;;;;;;7.10;69.31;100773.59;10406334;28;20053;-81
2023/11/17 12:27:14;;;;;;;11.32;5.28;;;;;;;7.82;67.13;100781.69;10415024;28;20053;-81
2023/11/17 12:32:19;;;;;;;8.27;6.05;;;;;;;7.75;67.37;100785.69;10412363;28;20049;-83
2023/11/17 12:37:22;;;;;;;10.10;6.40;;;;;;;8.26;65.07;100792.19;10424949;28;20325;-83
2023/11/17 12:42:25;;;;;;;9.90;6.45;;;;;;;8.76;63.06;100790.72;10418420;28;20179;-80
2023/11/17 12:47:31;;;;;;;10.55;6.55;;;;;;;8.48;65.08;100804.22;10406771;28;20049;-81
2023/11/17 12:52:38;;;;;;;6.80;5.63;;;;;;;8.01;66.55;100803.63;10410429;28;20508;-81
2023/11/17 12:57:47;;;;;;;16.00;7.25;;;;;;;9.25;62.72;100806.13;10414811;28;20104;-79
2023/11/17 13:02:51;;;;;;;9.82;7.00;;;;;;;9.47;60.66;100801.97;10417352;28;20052;-82
2023/11/17 13:07:54;;;;;;;11.50;6.28;;;;;;;8.41;64.10;100817.09;10422621;28;20042;-81
2023/11/17 13:12:57;;;;;;;8.35;6.20;;;;;;;9.18;62.73;100807.50;10432965;28;20051;-80
2023/11/17 13:18:02;;;;;;;7.65;5.90;;;;;;;8.57;63.46;100815.19;10424535;28;20061;-81
2023/11/17 13:23:06;;;;;;;13.55;6.55;;;;;;;9.15;62.20;100806.88;10430203;28;20057;-79
2023/11/17 13:28:12;;;;;;;8.70;6.05;;;;;;;8.80;61.94;100820.81;10442563;28;20055;-82
2023/11/17 13:33:16;;;;;;;10.27;6.30;;;;;;;8.18;63.28;100822.13;10416839;28;20061;-82
2023/11/17 13:38:19;;;;;;;6.22;3.72;;;;;;;8.46;61.97;100817.69;10420720;28;20053;-81
2023/11/17 13:43:22;;;;;;;9.82;4.85;;;;;;;8.10;62.58;100816.41;10417181;28;20704;-81
2023/11/17 13:48:26;;;;;;;13.48;5.70;;;;;;;8.60;61.76;100822.16;10413917;28;20049;-82
2023/11/17 13:53:30;;;;;;;8.38;5.40;;;;;;;8.94;61.07;100822.56;10404250;28;20057;-83
2023/11/17 13:58:35;;;;;;;12.00;5.47;;;;;;;8.29;62.44;100840.19;10411606;28;20135;-83
2023/11/17 14:03:40;;;;;;;10.05;5.13;;;;;;;8.95;60.59;100841.25;10419276;28;20134;-81
2023/11/17 14:08:43;;;;;;;9.65;6.32;;;;;;;8.61;61.10;100845.28;10426676;28;20083;-80
2023/11/17 14:13:46;;;;;;;11.77;5.13;;;;;;;8.42;60.92;100847.41;10437569;28;20052;-82
2023/11/17 14:18:53;;;;;;;14.48;6.32;;;;;;;8.36;61.39;100857.56;10419452;28;20135;-82
2023/11/17 14:23:57;;;;;;;11.73;5.95;;;;;;;7.71;63.29;100858.09;10433411;28;20171;-83
2023/11/17 14:29:00;;;;;;;14.60;6.35;;;;;;;8.53;61.62;100871.69;10424612;28;20052;-83
2023/11/17 14:34:11;;;;;;;10.95;6.25;;;;;;;7.99;63.80;100880.44;10413510;28;20065;-82
2023/11/17 14:39:14;;;;;;;12.23;6.40;;;;;;;8.02;64.16;100887.44;10417738;28;20048;-82
2023/11/17 14:44:18;;;;;;;18.05;7.32;;;;;;;8.15;63.98;100889.22;10408986;28;20053;-81
2023/11/17 14:49:23;;;;;;;10.30;6.03;;;;;;;8.33;63.19;100886.34;10397623;28;20798;-82
2023/11/17 14:54:27;;;;;;;10.63;5.95;;;;;;;8.20;63.19;100886.28;10408331;28;20042;-81
2023/11/17 14:59:30;;;;;;;13.50;5.35;;;;;;;7.31;66.21;100889.03;10410611;28;21202;-80
2023/11/17 15:04:35;;;;;;;6.57;4.30;;;;;;;7.34;65.88;100899.53;10413489;28;20060;-83
2023/11/17 15:09:38;;;;;;;8.93;4.38;;;;;;;7.04;66.84;100903.06;10404300;28;20568;-82
2023/11/17 15:14:41;;;;;;;8.88;4.30;;;;;;;6.66;68.71;100907.03;10431097;28;20045;-81
2023/11/17 15:19:46;;;;;;;12.50;5.13;;;;;;;6.57;69.20;100903.94;10396137;28;20061;-81
2023/11/17 15:24:49;;;;;;;12.02;5.20;;;;;;;6.44;69.41;100915.38;10416008;28;20637;-79
2023/11/17 15:29:52;;;;;;;9.20;5.15;;;;;;;6.19;70.50;100916.72;10402418;28;20064;-81
2023/11/17 15:34:57;;;;;;;9.18;4.88;;;;;;;5.98;71.69;100918.75;10434170;28;20072;-81
2023/11/17 15:40:07;;;;;;;9.32;5.00;;;;;;;5.89;72.45;100921.88;10432146;28;20279;-80
2023/11/17 15:45:13;;;;;;;12.00;5.20;;;;;;;5.77;73.15;100923.41;10420532;28;20064;-81
2023/11/17 15:50:18;;;;;;;11.13;5.80;;;;;;;5.65;73.86;100926.69;10407434;28;20041;-83
2023/11/17 15:55:22;;;;;;;14.02;6.18;;;;;;;5.58;74.56;100941.28;10416507;28;20729;-83
2023/11/17 16:00:26;;;;;;;10.00;5.45;;;;;;;5.47;75.40;100948.03;10418953;28;20059;-83
2023/11/17 16:05:33;;;;;;;11.35;6.60;;;;;;;5.37;76.06;100962.75;10423192;28;20045;-84
2023/11/17 16:10:37;;;;;;;14.52;6.75;;;;;;;5.23;76.99;100973.22;10416093;28;20059;-82
2023/11/17 16:15:43;;;;;;;9.98;5.55;;;;;;;5.14;77.75;100985.22;10407832;28;20089;-82
2023/11/17 16:20:47;;;;;;;14.18;7.30;;;;;;;5.10;78.61;100990.75;10405794;28;20044;-81
2023/11/17 16:25:50;;;;;;;23.27;8.43;;;;;;;5.08;79.19;100990.84;10394666;28;20051;-78
2023/11/17 16:30:53;;;;;;;15.40;8.10;;;;;;;5.04;79.80;101002.56;10405350;28;20081;-80
2023/11/17 16:35:57;;;;;;;12.75;7.82;;;;;;;4.93;80.40;101013.69;10411501;28;20045;-81
2023/11/17 16:41:00;;;;;;;13.05;8.20;;;;;;;4.83;81.97;101023.06;10408073;28;20139;-78
2023/11/17 16:46:04;;;;;;;21.23;10.10;;;;;;;4.81;82.48;101020.47;10407228;28;20049;-80
2023/11/17 16:51:10;;;;;;;17.98;9.70;;;;;;;4.79;82.72;101027.66;10407949;28;20053;-81
2023/11/17 16:56:14;;;;;;;20.95;9.82;;;;;;;4.77;83.37;101026.00;10449195;28;21182;-78
2023/11/17 17:01:17;;;;;;;19.35;11.13;;;;;;;4.73;83.68;101025.28;10402265;28;20768;-79
2023/11/17 17:06:22;;;;;;;19.13;10.85;;;;;;;4.71;83.90;101031.59;10402634;28;20057;-78
2023/11/17 17:11:24;;;;;;;16.25;10.75;;;;;;;4.67;84.12;101030.03;10389365;28;20068;-82
2023/11/17 17:16:30;;;;;;;20.98;11.10;;;;;;;4.65;84.38;101032.75;10420011;28;20049;-79
2023/11/17 17:21:34;;;;;;;19.75;13.88;;;;;;;4.62;84.72;101035.56;10404154;28;20517;-79
2023/11/17 17:26:38;;;;;;;20.25;12.63;;;;;;;4.54;85.28;101051.00;10389763;28;20045;-80
2023/11/17 17:31:42;;;;;;;21.13;12.80;;;;;;;4.49;85.89;101045.03;10412754;28;20053;-81
2023/11/17 17:36:47;;;;;;;18.98;11.68;;;;;;;4.41;85.98;101056.00;10395078;28;20049;-82
2023/11/17 17:41:50;;;;;;;24.60;13.88;;;;;;;4.29;86.33;101059.22;10399776;28;20065;-80
2023/11/17 17:46:56;;;;;;;27.90;14.73;;;;;;;4.23;87.00;101049.72;10414634;28;20097;-80
2023/11/17 17:52:01;;;;;;;26.67;12.82;;;;;;;4.31;87.54;101070.69;10393959;28;20045;-81
2023/11/17 17:57:05;;;;;;;23.92;13.25;;;;;;;4.42;87.39;101072.88;10393736;28;20076;-79
2023/11/17 18:02:09;;;;;;;22.83;12.88;;;;;;;4.43;87.47;101093.22;10421157;28;21063;-79
2023/11/17 18:07:13;;;;;;;21.58;12.77;;;;;;;4.41;87.92;101085.28;10450477;28;20124;-79
2023/11/17 18:12:16;;;;;;;21.15;12.15;;;;;;;4.56;87.35;101084.59;10456464;28;20076;-78
2023/11/17 18:17:19;;;;;;;25.20;13.80;;;;;;;4.63;87.18;101071.88;10444579;28;20109;-81
2023/11/17 18:22:27;;;;;;;27.13;12.93;;;;;;;4.70;86.57;101080.47;10407586;28;20045;-80
2023/11/17 18:27:35;;;;;;;23.20;12.55;;;;;;;4.68;86.66;101090.31;10413212;28;20051;-81
2023/11/17 18:32:40;;;;;;;27.15;14.13;;;;;;;4.66;86.68;101097.50;10392739;28;20131;-82
2023/11/17 18:37:47;;;;;;;28.63;14.75;;;;;;;4.71;86.33;101108.78;10430704;28;20110;-81
2023/11/17 18:42:51;;;;;;;31.15;16.02;;;;;;;4.59;87.27;101115.53;10393329;28;20074;-81
2023/11/17 18:47:55;;;;;;;28.15;14.60;;;;;;;4.61;87.31;101114.53;10418816;28;20526;-83
2023/11/17 18:52:59;;;;;;;34.33;15.85;;;;;;;4.68;87.11;101111.59;10402144;28;20509;-80
2023/11/17 18:58:02;;;;;;;34.97;17.77;;;;;;;4.67;87.11;101107.22;10420326;28;20061;-80
2023/11/17 19:03:06;;;;;;;39.90;19.25;;;;;;;4.55;87.51;101104.19;10400141;28;20057;-79
2023/11/17 19:08:11;;;;;;;32.10;17.85;;;;;;;4.21;89.33;101117.22;10402312;28;20053;-79
2023/11/17 19:13:15;;;;;;;29.83;16.55;;;;;;;3.88;92.65;101120.34;10420934;28;20052;-79
2023/11/17 19:18:18;;;;;;;32.90;16.58;;;;;;;3.89;91.87;101124.72;10395207;28;20432;-81
2023/11/17 19:23:26;;;;;;;33.65;17.00;;;;;;;3.97;91.58;101119.09;10416034;28;20698;-80
2023/11/17 19:28:31;;;;;;;29.85;17.27;;;;;;;4.11;91.06;101124.69;10410248;28;20045;-79
2023/11/17 19:33:37;;;;;;;35.63;17.80;;;;;;;4.02;91.33;101125.09;10410840;28;20629;-80
2023/11/17 19:38:42;;;;;;;35.40;18.30;;;;;;;3.98;91.91;101126.13;10418346;28;20048;-80
2023/11/17 19:43:45;;;;;;;36.78;19.23;;;;;;;4.00;91.80;101133.13;10417492;28;20060;-80
2023/11/17 19:48:49;;;;;;;41.70;19.65;;;;;;;3.99;91.41;101135.88;10408713;28;20047;-80
2023/11/17 19:53:53;;;;;;;41.97;19.90;;;;;;;3.94;91.43;101138.72;10403570;28;20088;-80
2023/11/17 19:58:57;;;;;;;38.33;19.55;;;;;;;3.90;91.31;101151.28;10410491;28;20728;-82
2023/11/17 20:04:00;;;;;;;38.22;19.50;;;;;;;3.82;91.07;101165.81;10399934;28;20045;-80
2023/11/17 20:09:10;;;;;;;40.95;20.63;;;;;;;3.63;91.75;101168.34;10398074;28;20059;-81
2023/11/17 20:14:14;;;;;;;50.10;20.63;;;;;;;3.46;94.32;101171.66;10438239;28;20075;-80
2023/11/17 20:19:17;;;;;;;44.13;21.20;;;;;;;3.43;95.49;101175.28;10409078;28;20115;-81
2023/11/17 20:24:23;;;;;;;45.30;21.38;;;;;;;3.50;95.19;101183.88;10413454;28;20038;-80
2023/11/17 20:29:26;;;;;;;45.08;21.13;;;;;;;3.65;95.01;101191.25;10410793;28;20052;-79
2023/11/17 20:34:30;;;;;;;44.88;20.10;;;;;;;3.72;94.81;101181.25;10434263;28;20048;-82
2023/11/17 20:39:38;;;;;;;41.55;19.50;;;;;;;3.72;95.67;101191.88;10397337;28;20053;-79
2023/11/17 20:44:41;;;;;;;43.85;22.67;;;;;;;3.80;95.23;101180.94;10405170;28;20049;-81
2023/11/17 20:49:44;;;;;;;49.65;22.90;;;;;;;3.60;96.39;101190.56;10411428;28;20037;-81
2023/11/17 20:54:50;;;;;;;44.60;23.17;;;;;;;3.75;95.60;101191.75;10412500;28;20040;-80
2023/11/17 20:59:54;;;;;;;42.88;22.63;;;;;;;3.40;97.46;101201.97;10404924;28;20042;-80
2023/11/17 21:04:59;;;;;;;53.05;25.48;;;;;;;3.44;98.40;101206.22;10407440;28;20059;-80
2023/11/17 21:10:11;;;;;;;49.65;24.48;;;;;;;3.61;97.36;101207.38;10388853;28;20057;-79
2023/11/17 21:15:19;;;;;;;55.05;25.30;;;;;;;3.53;96.83;101210.31;10389235;28;20052;-82
2023/11/17 21:20:22;;;;;;;58.30;26.33;;;;;;;3.47;98.42;101222.06;10399529;28;20461;-82
2023/11/17 21:25:30;;;;;;;56.17;25.52;;;;;;;3.54;97.12;101235.97;10408968;28;20044;-79
2023/11/17 21:30:33;;;;;;;51.30;25.73;;;;;;;3.56;97.05;101242.09;10413819;28;20954;-80
2023/11/17 21:35:36;;;;;;;63.22;27.70;;;;;;;3.61;96.77;101236.59;10410361;28;20053;-81
2023/11/17 21:40:40;;;;;;;65.72;28.80;;;;;;;3.63;97.07;101248.03;10424715;28;20967;-77
2023/11/17 21:45:44;;;;;;;61.53;26.92;;;;;;;3.61;96.52;101234.81;10410354;28;20061;-80
2023/11/17 21:50:47;;;;;;;59.10;27.80;;;;;;;3.59;96.30;101236.66;10405499;28;20091;-79
2023/11/17 21:55:51;;;;;;;56.70;26.75;;;;;;;3.49;95.49;101232.63;10412360;28;20049;-80
2023/11/17 22:00:56;;;;;;;47.55;24.73;;;;;;;3.39;94.96;101231.25;10402451;28;20056;-79
2023/11/17 22:05:59;;;;;;;51.08;25.20;;;;;;;3.33;94.47;101236.78;10416618;28;20050;-80
2023/11/17 22:11:06;;;;;;;61.38;28.33;;;;;;;3.23;94.41;101237.09;10408742;28;20630;-82
2023/11/17 22:16:09;;;;;;;55.85;25.77;;;;;;;3.15;94.29;101231.22;10410969;28;20045;-80
2023/11/17 22:21:12;;;;;;;66.60;28.25;;;;;;;3.12;94.63;101230.47;10426648;28;20045;-79
2023/11/17 22:26:17;;;;;;;60.72;27.52;;;;;;;3.08;94.36;101240.34;10419785;28;20188;-80
2023/11/17 22:31:24;;;;;;;64.72;30.80;;;;;;;3.03;93.96;101244.94;10424182;28;20052;-79
2023/11/17 22:36:27;;;;;;;59.22;26.65;;;;;;;2.78;94.87;101253.78;10419753;28;20052;-81
2023/11/17 22:41:32;;;;;;;64.93;29.00;;;;;;;2.71;96.60;101259.34;10411961;28;20037;-81
2023/11/17 22:46:38;;;;;;;77.68;30.83;;;;;;;2.88;97.38;101272.91;10416847;28;20053;-78
2023/11/17 22:51:42;;;;;;;254.95;35.75;;;;;;;2.81;99.10;101274.03;10404138;28;20049;-81
2023/11/17 22:56:46;;;;;;;253.32;34.85;;;;;;;2.64;100.00;101277.25;10412511;28;20064;-79
2023/11/17 23:01:49;;;;;;;271.42;32.95;;;;;;;2.48;100.00;101276.00;10396356;28;20049;-79
2023/11/17 23:06:52;;;;;;;237.45;32.35;;;;;;;2.65;100.00;101292.25;10426476;28;20051;-79
2023/11/17 23:11:57;;;;;;;200.77;30.00;;;;;;;2.53;100.00;101297.94;10406933;28;20053;-79
2023/11/17 23:17:00;;;;;;;193.82;30.80;;;;;;;2.68;100.00;101304.56;10416959;28;20054;-79
2023/11/17 23:22:03;;;;;;;135.75;30.23;;;;;;;2.48;100.00;101303.41;10399325;28;20053;-80